createdAt,value
2023-03-08T00:00:29.511Z,98872.19
2023-03-08T00:05:33.204Z,98868.75
2023-03-08T00:10:34.766Z,98872.94
2023-03-08T00:15:38.153Z,98876.81
2023-03-08T00:20:39.673Z,98881.53
2023-03-08T00:25:41.191Z,98873.91
2023-03-08T00:30:42.686Z,98855.16
2023-03-08T00:35:44.276Z,98834.78
2023-03-08T00:40:45.830Z,98833.31
2023-03-08T00:45:48.779Z,98840.50
2023-03-08T00:50:52.206Z,98851.16
2023-03-08T00:55:58.641Z,98842.09
2023-03-08T01:01:01.282Z,98837.56
2023-03-08T01:06:09.577Z,98825.94
2023-03-08T01:11:23.941Z,98822.28
2023-03-08T01:16:31.484Z,98806.53
2023-03-08T01:21:33.657Z,98801.19
2023-03-08T01:26:35.229Z,98798.72
2023-03-08T01:31:36.931Z,98791.72
2023-03-08T01:36:38.510Z,98780.97
2023-03-08T01:41:40.062Z,98771.84
2023-03-08T01:46:41.862Z,98781.84
2023-03-08T01:52:09.802Z,98780.41
2023-03-08T01:57:17.504Z,98775.66
2023-03-08T02:02:28.253Z,98770.63
2023-03-08T02:07:30.657Z,98766.84
2023-03-08T02:12:33.965Z,98777.00
2023-03-08T02:17:38.526Z,98766.09
2023-03-08T02:22:41.772Z,98756.41
2023-03-08T02:27:44.208Z,98748.34
2023-03-08T02:32:45.884Z,98743.63
2023-03-08T02:37:47.579Z,98737.72
2023-03-08T02:42:50.691Z,98711.84
2023-03-08T02:47:53.352Z,98706.97
2023-03-08T02:52:55.315Z,98696.53
2023-03-08T02:57:56.938Z,98679.63
2023-03-08T03:02:58.638Z,98671.09
2023-03-08T03:08:02.347Z,98657.72
2023-03-08T03:13:06.300Z,98644.09
2023-03-08T03:18:07.928Z,98639.88
2023-03-08T03:23:09.511Z,98634.59
2023-03-08T03:28:19.198Z,98626.16
2023-03-08T03:33:21.296Z,98636.31
2023-03-08T03:38:23.510Z,98622.03
2023-03-08T03:43:25.129Z,98616.78
2023-03-08T03:48:27.488Z,98623.16
2023-03-08T03:53:30.664Z,98627.34
2023-03-08T03:58:32.686Z,98628.16
2023-03-08T04:03:34.616Z,98640.41
2023-03-08T04:08:42.280Z,98640.41
2023-03-08T04:13:46.990Z,98646.41
2023-03-08T04:18:52.875Z,98630.56
2023-03-08T04:23:55.041Z,98612.59
2023-03-08T04:28:57.476Z,98608.38
2023-03-08T04:34:02.418Z,98606.28
2023-03-08T04:39:04.297Z,98597.53
2023-03-08T04:44:06.297Z,98588.44
2023-03-08T04:49:15.657Z,98584.69
2023-03-08T04:54:21.198Z,98594.25
2023-03-08T04:59:28.862Z,98586.50
2023-03-08T05:04:33.289Z,98575.28
2023-03-08T05:09:35.390Z,98575.72
2023-03-08T05:14:37.262Z,98560.56
2023-03-08T05:19:38.878Z,98560.19
2023-03-08T05:24:41.700Z,98565.38
2023-03-08T05:29:46.120Z,98571.53
2023-03-08T05:34:48.641Z,98569.50
2023-03-08T05:39:58.372Z,98575.06
2023-03-08T05:45:00.152Z,98566.88
2023-03-08T05:50:05.808Z,98554.75
2023-03-08T05:55:11.074Z,98558.06
2023-03-08T06:00:14.726Z,98534.78
2023-03-08T06:05:23.882Z,98537.22
2023-03-08T06:10:28.874Z,98528.81
2023-03-08T06:15:30.580Z,98532.88
2023-03-08T06:20:32.972Z,98527.97
2023-03-08T06:25:35.253Z,98531.66
2023-03-08T06:30:37.179Z,98528.03
2023-03-08T06:35:39.880Z,98528.31
2023-03-08T06:40:41.489Z,98525.53
2023-03-08T06:45:43.142Z,98531.91
2023-03-08T06:50:45.239Z,98533.44
2023-03-08T06:55:47.164Z,98544.38
2023-03-08T07:00:49.279Z,98555.22
2023-03-08T07:05:50.817Z,98542.59
2023-03-08T07:10:52.544Z,98528.81
2023-03-08T07:15:54.201Z,98524.28
2023-03-08T07:20:56.628Z,98510.38
2023-03-08T07:25:58.257Z,98498.88
2023-03-08T07:31:00.467Z,98494.56
2023-03-08T07:36:04.599Z,98492.56
2023-03-08T07:41:06.281Z,98476.31
2023-03-08T07:46:07.812Z,98458.88
2023-03-08T07:51:10.318Z,98451.88
2023-03-08T07:56:12.014Z,98443.72
2023-03-08T08:01:14.687Z,98427.91
2023-03-08T08:06:17.651Z,98415.97
2023-03-08T08:11:22.508Z,98415.13
2023-03-08T08:16:24.261Z,98405.16
2023-03-08T08:21:27.177Z,98415.53
2023-03-08T08:26:29.093Z,98397.09
2023-03-08T08:31:33.306Z,98392.09
2023-03-08T08:36:35.098Z,98371.88
2023-03-08T08:41:36.742Z,98350.06
2023-03-08T08:46:38.275Z,98342.72
2023-03-08T08:51:39.842Z,98326.63
2023-03-08T08:56:43.151Z,98307.47
2023-03-08T09:01:44.906Z,98295.69
2023-03-08T09:06:47.300Z,98287.13
2023-03-08T09:11:54.981Z,98273.94
2023-03-08T09:16:57.357Z,98256.94
2023-03-08T09:21:59.067Z,98248.84
2023-03-08T09:27:00.684Z,98243.47
2023-03-08T09:32:02.280Z,98242.19
2023-03-08T09:37:05.822Z,98228.78
2023-03-08T09:42:20.577Z,98222.53
2023-03-08T09:47:51.587Z,98225.19
2023-03-08T09:53:16.534Z,98215.81
2023-03-08T09:58:40.713Z,98201.41
2023-03-08T10:04:09.888Z,98196.50
2023-03-08T10:09:34.454Z,98198.25
2023-03-08T10:14:40.408Z,98193.28
2023-03-08T10:19:53.182Z,98171.75
2023-03-08T10:25:01.972Z,98157.78
2023-03-08T10:30:16.977Z,98156.06
2023-03-08T10:35:30.118Z,98141.06
2023-03-08T10:40:31.756Z,98141.66
2023-03-08T10:45:33.629Z,98142.31
2023-03-08T10:50:36.937Z,98141.00
2023-03-08T10:55:44.282Z,98126.78
2023-03-08T11:00:54.354Z,98123.72
2023-03-08T11:06:05.949Z,98122.28
2023-03-08T11:11:10.244Z,98118.47
2023-03-08T11:16:53.373Z,98124.06
2023-03-08T11:22:05.085Z,98124.31
2023-03-08T11:27:06.620Z,98112.69
2023-03-08T11:32:14.186Z,98102.34
2023-03-08T11:37:59.754Z,98094.47
2023-03-08T11:43:18.378Z,98092.50
2023-03-08T11:48:34.214Z,98087.25
2023-03-08T11:53:54.703Z,98072.69
2023-03-08T11:59:05.441Z,98075.59
2023-03-08T12:04:17.367Z,98068.97
2023-03-08T12:09:48.806Z,98066.75
2023-03-08T12:15:00.348Z,98065.28
2023-03-08T12:20:08.171Z,98055.31
2023-03-08T12:25:20.784Z,98055.56
2023-03-08T12:30:33.640Z,98051.38
2023-03-08T12:35:37.173Z,98058.66
2023-03-08T12:40:47.508Z,98044.84
2023-03-08T12:46:09.676Z,98049.44
2023-03-08T12:51:17.156Z,98041.66
2023-03-08T12:56:34.373Z,98029.22
2023-03-08T13:01:38.216Z,98025.50
2023-03-08T13:06:51.636Z,98027.59
2023-03-08T13:12:12.074Z,98023.09
2023-03-08T13:17:32.371Z,98019.81
2023-03-08T13:22:53.062Z,98021.59
2023-03-08T13:28:11.462Z,98029.63
2023-03-08T13:33:15.859Z,98042.53
2023-03-08T13:38:22.073Z,98064.47
2023-03-08T13:43:26.482Z,98072.16
2023-03-08T13:48:36.110Z,98066.75
2023-03-08T13:53:40.260Z,98064.84
2023-03-08T13:58:46.701Z,98069.50
2023-03-08T14:03:49.475Z,98084.53
2023-03-08T14:08:53.562Z,98092.22
2023-03-08T14:13:57.024Z,98089.25
2023-03-08T14:19:21.800Z,98089.53
2023-03-08T14:24:26.896Z,98092.00
2023-03-08T14:29:30.520Z,98084.06
2023-03-08T14:34:36.414Z,98072.56
2023-03-08T14:39:41.656Z,98066.28
2023-03-08T14:44:51.649Z,98052.84
2023-03-08T14:49:59.450Z,98067.28
2023-03-08T14:55:03.336Z,98047.75
2023-03-08T15:00:14.540Z,98040.19
2023-03-08T15:05:28.319Z,98033.69
2023-03-08T15:10:37.355Z,98017.41
2023-03-08T15:15:38.909Z,98004.13
2023-03-08T15:20:45.016Z,98000.16
2023-03-08T15:25:46.546Z,97998.69
2023-03-08T15:30:54.596Z,97993.72
2023-03-08T15:35:56.355Z,97988.91
2023-03-08T15:40:57.906Z,97983.91
2023-03-08T15:45:59.518Z,97976.16
2023-03-08T15:51:01.198Z,97959.09
2023-03-08T15:56:05.117Z,97964.59
2023-03-08T16:01:07.157Z,97958.53
2023-03-08T16:06:13.206Z,97951.88
2023-03-08T16:11:17.384Z,97954.53
2023-03-08T16:16:20.064Z,97944.59
2023-03-08T16:21:21.608Z,97940.72
2023-03-08T16:26:24.205Z,97931.06
2023-03-08T16:31:25.767Z,97928.56
2023-03-08T16:36:27.267Z,97914.22
2023-03-08T16:41:30.075Z,97917.06
2023-03-08T16:46:32.346Z,97908.75
2023-03-08T16:51:37.303Z,97904.00
2023-03-08T16:56:43.408Z,97900.16
2023-03-08T17:01:47.301Z,97904.00
2023-03-08T17:06:49.802Z,97899.03
2023-03-08T17:11:51.322Z,97897.59
2023-03-08T17:16:52.901Z,97886.63
2023-03-08T17:21:54.536Z,97892.13
2023-03-08T17:26:56.124Z,97888.06
2023-03-08T17:31:57.660Z,97880.97
2023-03-08T17:36:59.183Z,97893.47
2023-03-08T17:42:00.672Z,97891.25
2023-03-08T17:47:02.210Z,97892.97
2023-03-08T17:52:03.837Z,97896.56
2023-03-08T17:57:05.407Z,97903.63
2023-03-08T18:02:07.019Z,97931.78
2023-03-08T18:07:08.558Z,97938.50
2023-03-08T18:12:10.208Z,97921.81
2023-03-08T18:17:12.530Z,97921.09
2023-03-08T18:22:15.667Z,97924.72
2023-03-08T18:27:17.335Z,97913.59
2023-03-08T18:32:18.978Z,97922.59
2023-03-08T18:37:21.626Z,97926.78
2023-03-08T18:42:23.243Z,97917.28
2023-03-08T18:47:24.854Z,97890.81
2023-03-08T18:52:26.403Z,97908.34
2023-03-08T18:57:27.955Z,97932.13
2023-03-08T19:02:29.753Z,97940.31
2023-03-08T19:07:31.379Z,97934.88
2023-03-08T19:12:33.696Z,97940.06
2023-03-08T19:17:35.260Z,97943.38
2023-03-08T19:22:36.857Z,97944.19
2023-03-08T19:27:38.362Z,97955.91
2023-03-08T19:32:42.493Z,97950.44
2023-03-08T19:37:44.214Z,97978.31
2023-03-08T19:42:45.767Z,98002.66
2023-03-08T19:47:47.281Z,98019.59
2023-03-08T19:52:48.850Z,98046.09
2023-03-08T19:57:50.364Z,98039.53
2023-03-08T20:02:51.903Z,98054.84
2023-03-08T20:07:53.424Z,98060.84
2023-03-08T20:12:54.958Z,98054.84
2023-03-08T20:17:56.582Z,98062.50
2023-03-08T20:22:58.114Z,98054.88
2023-03-08T20:27:59.603Z,98044.75
2023-03-08T20:33:01.130Z,98041.44
2023-03-08T20:38:02.728Z,98034.38
2023-03-08T20:43:04.346Z,98072.84
2023-03-08T20:48:05.966Z,98117.38
2023-03-08T20:53:07.463Z,98113.28
2023-03-08T20:58:08.977Z,98082.66
2023-03-08T21:03:10.656Z,98051.81
2023-03-08T21:08:12.161Z,98052.31
2023-03-08T21:13:13.889Z,98094.97
2023-03-08T21:18:15.416Z,98070.31
2023-03-08T21:23:21.284Z,98071.41
2023-03-08T21:28:22.935Z,98045.19
2023-03-08T21:33:24.447Z,98017.00
2023-03-08T21:38:25.982Z,98010.16
2023-03-08T21:43:27.473Z,98010.97
2023-03-08T21:48:28.957Z,97998.41
2023-03-08T21:53:30.512Z,98008.53
2023-03-08T21:58:32.025Z,98027.94
2023-03-08T22:03:34.715Z,98014.25
2023-03-08T22:08:36.290Z,98009.31
2023-03-08T22:13:37.790Z,98021.59
2023-03-08T22:18:39.816Z,98005.75
2023-03-08T22:23:41.330Z,97982.78
2023-03-08T22:28:42.975Z,97947.50
2023-03-08T22:33:45.299Z,97940.38
2023-03-08T22:38:47.213Z,97954.06
2023-03-08T22:43:49.588Z,97949.66
2023-03-08T22:48:52.524Z,97926.97
2023-03-08T22:53:54.071Z,97916.06
2023-03-08T22:58:56.090Z,97907.84
2023-03-08T23:03:59.521Z,97880.00
2023-03-08T23:09:08.897Z,97886.88
2023-03-08T23:14:11.450Z,97875.94
2023-03-08T23:19:18.547Z,97854.88
2023-03-08T23:24:20.256Z,97851.59
2023-03-08T23:29:23.881Z,97864.47
2023-03-08T23:34:25.420Z,97895.06
2023-03-08T23:39:26.991Z,97892.91
2023-03-08T23:44:28.683Z,97874.59
2023-03-08T23:49:30.315Z,97894.59
2023-03-08T23:54:31.807Z,98017.59
2023-03-08T23:59:33.355Z,97978.38
